Time;durP1;ratioP1;P1;durP2;ratioP2;P2;SDS_P1;SDS_P2;PMS_P1;PMS_P2;Temp;Humidity;BMP_temperature;BMP_pressure;BME280_temperature;BME280_humidity;BME280_pressure;Samples;Min_cycle;Max_cycle;Signal;HPM_P1;HPM_P2
2023/03/23 00:01:56;;;;;;;4.80;4.60;;;13.20;99.90;;;;;;5031841;28;20704;-64
2023/03/23 00:04:22;;;;;;;4.37;4.17;;;13.20;99.90;;;;;;5031748;28;20175;-64
2023/03/23 00:06:49;;;;;;;4.70;4.50;;;13.20;99.90;;;;;;5014020;28;20206;-64
2023/03/23 00:09:14;;;;;;;6.33;5.87;;;13.20;99.90;;;;;;5031472;28;20183;-64
2023/03/23 00:11:42;;;;;;;4.70;4.50;;;13.20;99.90;;;;;;5013884;28;20206;-64
2023/03/23 00:14:12;;;;;;;5.13;4.60;;;13.20;99.90;;;;;;5031649;28;20211;-64
2023/03/23 00:16:40;;;;;;;4.50;4.30;;;13.20;99.90;;;;;;5031733;28;20171;-64
2023/03/23 00:19:08;;;;;;;5.00;4.57;;;13.20;99.90;;;;;;5031357;28;20239;-64
2023/03/23 00:21:36;;;;;;;5.20;4.90;;;13.20;99.90;;;;;;5031623;28;20254;-64
2023/03/23 00:24:06;;;;;;;4.70;4.43;;;13.20;99.90;;;;;;5031322;28;20195;-64
2023/03/23 00:26:33;;;;;;;4.60;4.30;;;13.20;99.90;;;;;;5031493;28;20222;-64
2023/03/23 00:29:00;;;;;;;4.60;4.30;;;13.20;99.90;;;;;;5031311;28;20672;-64
2023/03/23 00:31:31;;;;;;;4.67;4.23;;;13.20;99.90;;;;;;5031040;28;20225;-64
2023/03/23 00:33:58;;;;;;;4.73;4.43;;;13.20;99.90;;;;;;5031460;28;20281;-64
2023/03/23 00:36:24;;;;;;;5.13;4.83;;;13.20;99.90;;;;;;5031310;28;20199;-64
2023/03/23 00:38:49;;;;;;;4.87;4.57;;;13.20;99.90;;;;;;5031355;28;20211;-64
2023/03/23 00:41:15;;;;;;;4.60;4.40;;;13.20;99.90;;;;;;5031310;28;20171;-64
2023/03/23 00:43:41;;;;;;;4.77;4.57;;;13.20;99.90;;;;;;5031043;28;20207;-64
2023/03/23 00:46:09;;;;;;;4.73;4.43;;;13.20;99.90;;;;;;5031426;28;20168;-64
2023/03/23 00:48:44;;;;;;;4.47;4.27;;;13.20;99.90;;;;;;5031278;28;20185;-64
2023/03/23 00:51:10;;;;;;;4.77;4.47;;;13.20;99.90;;;;;;5031325;28;20600;-64
2023/03/23 00:53:36;;;;;;;4.57;4.37;;;13.20;99.90;;;;;;5030985;28;20574;-64
2023/03/23 00:56:01;;;;;;;4.20;4.00;;;13.20;99.90;;;;;;5031333;28;20184;-64
2023/03/23 00:58:27;;;;;;;4.60;4.30;;;13.20;99.90;;;;;;5031130;28;20207;-64
2023/03/23 01:00:54;;;;;;;4.30;4.10;;;13.10;99.90;;;;;;5030777;28;20175;-64
2023/03/23 01:03:19;;;;;;;5.07;4.67;;;13.20;99.90;;;;;;5031201;28;20200;-64
2023/03/23 01:05:51;;;;;;;4.73;4.37;;;13.10;99.90;;;;;;5030751;28;20179;-64
2023/03/23 01:08:18;;;;;;;4.60;4.30;;;13.20;99.90;;;;;;5031220;28;20570;-64
2023/03/23 01:10:44;;;;;;;4.80;4.40;;;13.10;99.90;;;;;;5034616;28;20183;-64
2023/03/23 01:13:10;;;;;;;4.50;4.30;;;13.20;99.90;;;;;;5035186;28;20512;-64
2023/03/23 01:15:36;;;;;;;5.37;4.87;;;13.20;99.90;;;;;;5034723;28;20202;-64
2023/03/23 01:18:02;;;;;;;4.27;4.07;;;13.20;99.90;;;;;;5034818;28;20214;-64
2023/03/23 01:20:30;;;;;;;5.20;5.00;;;13.20;99.90;;;;;;5034854;28;20168;-64
2023/03/23 01:23:00;;;;;;;4.27;4.07;;;13.10;99.90;;;;;;5034703;28;20192;-64
2023/03/23 01:25:30;;;;;;;5.27;5.07;;;13.00;99.90;;;;;;5034687;28;20600;-64
2023/03/23 01:27:56;;;;;;;5.50;5.30;;;13.00;99.90;;;;;;5034332;28;20183;-64
2023/03/23 01:30:22;;;;;;;5.03;4.73;;;12.90;99.90;;;;;;5025833;28;20646;-64
2023/03/23 01:32:47;;;;;;;4.60;4.40;;;12.90;99.90;;;;;;5015129;28;20282;-64
2023/03/23 01:35:13;;;;;;;6.67;6.27;;;12.80;99.90;;;;;;5014859;28;20263;-64
2023/03/23 01:37:39;;;;;;;5.97;5.67;;;12.70;99.90;;;;;;5027726;28;20211;-65
2023/03/23 01:40:06;;;;;;;6.30;5.97;;;12.50;99.90;;;;;;5033644;28;20333;-65
2023/03/23 01:42:35;;;;;;;6.37;5.60;;;12.40;99.90;;;;;;5033725;28;20218;-65
2023/03/23 01:45:23;;;;;;;5.63;5.33;;;12.20;99.90;;;;;;5034293;28;20183;-65
2023/03/23 01:48:09;;;;;;;6.03;5.73;;;12.00;99.90;;;;;;5034049;28;20194;-65
2023/03/23 01:50:47;;;;;;;4.90;4.60;;;12.00;99.90;;;;;;5034283;28;20183;-65
2023/03/23 01:53:13;;;;;;;6.87;6.47;;;11.90;99.90;;;;;;5034276;28;20222;-65
2023/03/23 01:55:42;;;;;;;5.30;5.10;;;11.80;99.90;;;;;;5034266;28;20258;-65
2023/03/23 01:58:10;;;;;;;5.43;5.13;;;11.80;99.90;;;;;;5034804;28;20624;-65
2023/03/23 02:00:40;;;;;;;5.13;4.80;;;11.70;99.90;;;;;;5033750;28;20175;-65
2023/03/23 02:03:08;;;;;;;5.60;5.10;;;11.70;99.90;;;;;;5034248;28;20278;-65
2023/03/23 02:05:38;;;;;;;6.70;6.33;;;11.70;99.90;;;;;;5033865;28;20688;-64
2023/03/23 02:08:07;;;;;;;5.13;4.83;;;11.70;99.90;;;;;;5034086;28;20171;-65
2023/03/23 02:10:33;;;;;;;5.83;5.40;;;11.60;99.90;;;;;;5033609;28;20184;-65
2023/03/23 02:13:01;;;;;;;5.63;5.33;;;11.60;99.90;;;;;;5033945;28;20261;-65
2023/03/23 02:15:35;;;;;;;5.93;5.47;;;11.60;99.90;;;;;;5033615;28;20201;-65
2023/03/23 02:18:10;;;;;;;5.30;5.00;;;11.60;99.90;;;;;;5033625;28;20209;-65
2023/03/23 02:20:58;;;;;;;5.17;4.87;;;11.50;99.90;;;;;;5032516;28;20182;-65
2023/03/23 02:23:38;;;;;;;6.07;5.77;;;11.50;99.90;;;;;;5033718;28;20215;-65
2023/03/23 02:26:33;;;;;;;5.87;5.57;;;11.60;99.90;;;;;;5033501;28;20270;-65
2023/03/23 02:29:17;;;;;;;5.33;5.13;;;11.50;99.90;;;;;;5033605;28;20676;-65
2023/03/23 02:32:10;;;;;;;5.07;4.80;;;11.50;99.90;;;;;;5013559;28;20172;-65
2023/03/23 02:34:59;;;;;;;5.37;5.07;;;11.50;99.90;;;;;;5018700;28;20190;-65
2023/03/23 02:37:33;;;;;;;5.60;5.30;;;11.50;99.90;;;;;;5033138;28;20176;-65
2023/03/23 02:40:11;;;;;;;5.60;5.30;;;11.50;99.90;;;;;;5032765;28;20243;-65
2023/03/23 02:42:40;;;;;;;6.07;5.67;;;11.40;99.90;;;;;;5033506;28;20202;-65
2023/03/23 02:45:08;;;;;;;5.70;5.40;;;11.40;99.90;;;;;;5033231;28;20294;-65
2023/03/23 02:47:37;;;;;;;5.30;5.00;;;11.40;99.90;;;;;;5033249;28;20171;-65
2023/03/23 02:50:07;;;;;;;5.10;4.80;;;11.40;99.90;;;;;;5032907;28;20183;-65
2023/03/23 02:52:35;;;;;;;7.73;7.30;;;11.40;99.90;;;;;;5033262;28;20198;-65
2023/03/23 02:55:02;;;;;;;6.80;6.30;;;11.40;99.90;;;;;;5033027;28;20187;-65
2023/03/23 02:57:28;;;;;;;6.73;6.20;;;11.40;99.90;;;;;;5033137;28;20582;-65
2023/03/23 02:59:54;;;;;;;6.63;6.23;;;11.40;99.90;;;;;;5014740;28;20237;-65
2023/03/23 03:02:36;;;;;;;5.70;5.40;;;11.40;99.90;;;;;;5033635;28;20211;-65
2023/03/23 03:05:18;;;;;;;18.83;17.93;;;11.40;99.90;;;;;;5032980;28;20180;-65
2023/03/23 03:08:06;;;;;;;5.80;5.50;;;11.50;99.90;;;;;;5032690;28;20727;-65
2023/03/23 03:10:51;;;;;;;5.37;5.10;;;11.50;99.90;;;;;;5032495;28;20199;-65
2023/03/23 03:13:28;;;;;;;5.50;5.20;;;11.60;99.90;;;;;;5032906;28;20190;-65
2023/03/23 03:16:20;;;;;;;5.20;4.90;;;11.60;99.90;;;;;;5032789;28;20183;-65
2023/03/23 03:18:50;;;;;;;5.27;4.87;;;11.60;99.90;;;;;;5024347;28;20227;-65
2023/03/23 03:21:19;;;;;;;5.60;5.30;;;11.60;99.90;;;;;;5032589;28;20550;-65
2023/03/23 03:23:49;;;;;;;5.20;4.90;;;11.70;99.90;;;;;;5032508;28;20195;-65
2023/03/23 03:26:16;;;;;;;4.90;4.50;;;11.70;99.90;;;;;;5032563;28;20187;-65
2023/03/23 03:28:50;;;;;;;5.20;4.90;;;11.70;99.90;;;;;;5032600;28;20309;-64
2023/03/23 03:31:20;;;;;;;5.07;4.83;;;11.80;99.90;;;;;;5032135;28;20179;-65
2023/03/23 03:33:46;;;;;;;6.20;5.90;;;11.80;99.90;;;;;;5032177;28;20268;-65
2023/03/23 03:36:27;;;;;;;6.20;5.90;;;11.80;99.90;;;;;;5032112;28;20190;-65
2023/03/23 03:38:53;;;;;;;6.63;6.33;;;11.90;99.90;;;;;;5032098;28;20631;-64
2023/03/23 03:41:19;;;;;;;7.17;6.77;;;11.90;99.90;;;;;;5032080;28;20222;-64
2023/03/23 03:43:45;;;;;;;5.93;5.63;;;12.00;99.90;;;;;;5014364;28;20236;-64
2023/03/23 03:46:11;;;;;;;4.87;4.67;;;12.00;99.90;;;;;;5014424;28;20266;-65
2023/03/23 03:48:37;;;;;;;4.70;4.40;;;12.00;99.90;;;;;;5032301;28;20175;-65
2023/03/23 03:51:03;;;;;;;5.73;5.40;;;12.10;99.90;;;;;;5031733;28;20183;-65
2023/03/23 03:53:30;;;;;;;6.30;6.00;;;12.10;99.90;;;;;;5014353;28;20711;-65
2023/03/23 03:55:56;;;;;;;8.03;6.50;;;12.10;99.90;;;;;;5031905;28;20179;-65
2023/03/23 03:58:22;;;;;;;4.93;4.63;;;12.10;99.90;;;;;;5032157;28;20230;-65
2023/03/23 04:00:48;;;;;;;5.30;5.00;;;12.10;99.90;;;;;;5031538;28;20206;-65
2023/03/23 04:03:16;;;;;;;4.53;4.33;;;12.10;99.90;;;;;;5031947;28;20183;-65
2023/03/23 04:05:44;;;;;;;5.00;4.70;;;12.10;99.90;;;;;;5031583;28;20179;-65
2023/03/23 04:08:10;;;;;;;5.13;4.93;;;12.10;99.90;;;;;;5014309;28;20271;-65
2023/03/23 04:10:37;;;;;;;7.07;6.77;;;12.10;99.90;;;;;;5013932;28;20171;-65
2023/03/23 04:13:04;;;;;;;5.43;5.20;;;12.10;99.90;;;;;;5031703;28;20225;-65
2023/03/23 04:15:30;;;;;;;6.50;6.20;;;12.10;99.90;;;;;;5031655;28;20684;-65
2023/03/23 04:17:56;;;;;;;6.53;6.23;;;12.10;99.90;;;;;;5031633;28;20199;-65
2023/03/23 04:20:23;;;;;;;4.70;4.50;;;12.10;99.90;;;;;;5031401;28;20229;-65
2023/03/23 04:22:49;;;;;;;5.23;5.03;;;12.00;99.90;;;;;;5030937;28;20218;-65
2023/03/23 04:25:20;;;;;;;5.07;4.77;;;12.00;99.90;;;;;;5031447;28;20229;-65
2023/03/23 04:27:52;;;;;;;5.23;5.03;;;12.00;99.90;;;;;;5031247;28;20542;-65
2023/03/23 04:30:19;;;;;;;6.77;6.37;;;11.90;99.90;;;;;;5031610;28;20258;-65
2023/03/23 04:32:45;;;;;;;5.60;5.30;;;11.80;99.90;;;;;;5031422;28;20569;-65
2023/03/23 04:35:13;;;;;;;6.70;6.30;;;11.80;99.90;;;;;;5031432;28;20191;-65
2023/03/23 04:37:40;;;;;;;7.03;6.73;;;11.80;99.90;;;;;;5031246;28;20226;-65
2023/03/23 04:40:10;;;;;;;5.60;5.30;;;11.80;99.90;;;;;;5031656;28;20561;-65
2023/03/23 04:42:37;;;;;;;7.20;6.70;;;11.70;99.90;;;;;;5031296;28;20187;-65
2023/03/23 04:45:05;;;;;;;6.77;6.47;;;11.70;99.90;;;;;;5036893;28;20718;-65
2023/03/23 04:47:33;;;;;;;7.60;7.10;;;11.70;99.90;;;;;;5038048;28;20648;-65
2023/03/23 04:50:01;;;;;;;7.20;6.70;;;11.70;99.90;;;;;;5037825;28;20262;-65
2023/03/23 04:52:28;;;;;;;5.93;5.70;;;11.80;99.90;;;;;;5037847;28;20553;-65
2023/03/23 04:54:55;;;;;;;6.27;5.97;;;11.80;99.90;;;;;;5037969;28;20167;-65
2023/03/23 04:57:22;;;;;;;5.03;4.83;;;11.80;99.90;;;;;;5037731;28;20253;-65
2023/03/23 04:59:48;;;;;;;4.93;4.73;;;11.90;99.90;;;;;;5038704;28;20602;-65
2023/03/23 05:02:14;;;;;;;5.27;4.97;;;11.90;99.90;;;;;;5038238;28;20265;-65
2023/03/23 05:04:40;;;;;;;6.13;5.73;;;12.00;99.90;;;;;;5038313;28;20171;-65
2023/03/23 05:07:07;;;;;;;5.00;4.80;;;12.00;99.90;;;;;;5037895;28;20187;-64
2023/03/23 05:09:34;;;;;;;5.87;5.57;;;12.10;99.90;;;;;;5037844;28;20180;-65
2023/03/23 05:12:08;;;;;;;5.63;5.43;;;12.20;99.90;;;;;;5037625;28;20195;-64
2023/03/23 05:14:33;;;;;;;5.77;5.37;;;12.20;99.90;;;;;;5037814;28;20251;-64
2023/03/23 05:16:59;;;;;;;5.90;5.60;;;12.30;99.90;;;;;;5037221;28;20260;-64
2023/03/23 05:19:26;;;;;;;10.27;9.77;;;12.30;99.90;;;;;;5037231;28;20203;-64
2023/03/23 05:21:51;;;;;;;8.27;7.87;;;12.30;99.90;;;;;;5037131;28;20183;-64
2023/03/23 05:24:17;;;;;;;6.20;5.90;;;12.30;99.90;;;;;;5037786;28;20534;-64
2023/03/23 05:26:44;;;;;;;5.50;5.20;;;12.40;99.90;;;;;;5037276;28;20193;-64
2023/03/23 05:29:10;;;;;;;5.50;5.20;;;12.40;99.90;;;;;;5037288;28;20537;-64
2023/03/23 05:31:36;;;;;;;5.77;5.47;;;12.40;99.90;;;;;;5037237;28;20203;-64
2023/03/23 05:34:03;;;;;;;5.40;5.10;;;12.40;99.90;;;;;;5037542;28;20585;-64
2023/03/23 05:36:29;;;;;;;5.70;5.40;;;12.40;99.90;;;;;;5037413;28;20168;-64
2023/03/23 05:38:54;;;;;;;8.47;8.07;;;12.40;99.90;;;;;;5037177;28;20210;-64
2023/03/23 05:41:20;;;;;;;4.70;4.40;;;12.40;99.90;;;;;;5036197;28;20550;-64
2023/03/23 05:43:46;;;;;;;5.00;4.57;;;12.40;99.90;;;;;;5019020;28;20222;-64
2023/03/23 05:46:12;;;;;;;5.10;4.70;;;12.50;99.90;;;;;;5037543;28;20206;-64
2023/03/23 05:48:38;;;;;;;5.00;4.70;;;12.50;99.90;;;;;;5019397;28;20211;-64
2023/03/23 05:51:03;;;;;;;5.23;4.73;;;12.50;99.90;;;;;;5037169;28;20258;-64
2023/03/23 05:53:30;;;;;;;4.70;4.47;;;12.40;99.90;;;;;;5019197;28;20206;-64
2023/03/23 05:56:00;;;;;;;5.80;5.50;;;12.40;99.90;;;;;;5034084;28;20345;-64
2023/03/23 05:58:26;;;;;;;4.33;4.13;;;12.40;99.90;;;;;;5034098;28;20750;-64
2023/03/23 06:00:52;;;;;;;5.60;5.30;;;12.50;99.90;;;;;;5033860;28;20203;-64
2023/03/23 06:03:17;;;;;;;8.90;8.37;;;12.50;99.90;;;;;;5034067;28;20196;-64
2023/03/23 06:05:45;;;;;;;6.00;5.80;;;12.50;99.90;;;;;;5034050;28;20767;-64
2023/03/23 06:08:11;;;;;;;8.67;8.07;;;12.50;99.90;;;;;;5033918;28;20262;-64
2023/03/23 06:10:37;;;;;;;7.03;6.50;;;12.50;99.90;;;;;;5033579;28;20608;-64
2023/03/23 06:13:03;;;;;;;7.20;6.83;;;12.50;99.90;;;;;;5034000;28;20298;-64
2023/03/23 06:15:31;;;;;;;6.53;6.13;;;12.60;99.90;;;;;;5033945;28;20535;-64
2023/03/23 06:18:01;;;;;;;4.77;4.50;;;12.60;99.90;;;;;;5015828;28;20764;-64
2023/03/23 06:20:27;;;;;;;5.47;5.07;;;12.70;99.90;;;;;;5033665;28;20230;-64
2023/03/23 06:22:52;;;;;;;6.23;5.83;;;12.70;99.90;;;;;;5015782;28;20195;-64
2023/03/23 06:25:19;;;;;;;5.67;5.27;;;12.70;99.90;;;;;;5033783;28;20198;-64
2023/03/23 06:27:46;;;;;;;6.00;5.63;;;12.80;99.90;;;;;;5033332;28;20835;-64
2023/03/23 06:30:14;;;;;;;4.87;4.67;;;12.80;99.90;;;;;;5033879;28;20671;-64
2023/03/23 06:32:41;;;;;;;5.90;5.33;;;12.90;99.90;;;;;;5033337;28;20761;-64
2023/03/23 06:35:09;;;;;;;5.30;4.90;;;12.90;99.90;;;;;;5033690;28;20175;-64
2023/03/23 06:37:36;;;;;;;5.10;4.80;;;13.00;99.90;;;;;;5033467;28;20253;-64
2023/03/23 06:40:04;;;;;;;5.57;4.17;;;13.00;99.90;;;;;;5033288;28;20175;-64
2023/03/23 06:42:30;;;;;;;9.30;5.20;;;13.00;99.90;;;;;;5033249;28;20210;-64
2023/03/23 06:44:57;;;;;;;4.43;4.10;;;13.10;99.90;;;;;;5033343;28;20180;-64
2023/03/23 06:47:26;;;;;;;4.67;4.37;;;13.10;99.90;;;;;;5015858;28;20203;-64
2023/03/23 06:49:52;;;;;;;4.03;3.83;;;13.20;99.90;;;;;;5032900;28;20598;-64
2023/03/23 06:52:17;;;;;;;4.50;4.20;;;13.10;99.90;;;;;;5029073;28;20196;-64
2023/03/23 06:54:43;;;;;;;4.83;4.53;;;13.20;99.90;;;;;;5031543;28;20233;-64
2023/03/23 06:57:09;;;;;;;5.37;4.20;;;13.20;99.90;;;;;;5014980;28;20641;-64
2023/03/23 06:59:34;;;;;;;4.73;4.27;;;13.20;99.90;;;;;;5032390;28;20286;-64
2023/03/23 07:02:00;;;;;;;4.60;4.20;;;13.20;99.90;;;;;;5014767;28;20238;-64
2023/03/23 07:04:26;;;;;;;5.20;4.90;;;13.20;99.90;;;;;;5032870;28;20172;-64
2023/03/23 07:06:51;;;;;;;4.73;4.50;;;13.20;99.90;;;;;;5034081;28;20529;-64
2023/03/23 07:09:17;;;;;;;4.63;4.33;;;13.20;99.90;;;;;;5032627;28;20657;-64
2023/03/23 07:11:43;;;;;;;4.53;4.27;;;13.30;99.90;;;;;;5032507;28;20179;-65
2023/03/23 07:14:09;;;;;;;5.03;4.40;;;13.30;99.90;;;;;;5033263;28;20167;-65
2023/03/23 07:16:35;;;;;;;4.53;4.30;;;13.30;99.90;;;;;;5033962;28;20182;-65
2023/03/23 07:19:00;;;;;;;4.90;4.70;;;13.40;99.90;;;;;;5033498;28;20210;-65
2023/03/23 07:21:26;;;;;;;4.80;4.50;;;13.40;99.90;;;;;;5032096;28;20253;-65
2023/03/23 07:23:52;;;;;;;6.50;4.10;;;13.50;99.90;;;;;;5032264;28;20195;-64
2023/03/23 07:26:18;;;;;;;4.27;3.97;;;13.50;99.90;;;;;;5032223;28;20529;-65
2023/03/23 07:28:45;;;;;;;4.63;4.23;;;13.60;99.90;;;;;;5014163;28;20273;-63
2023/03/23 07:31:11;;;;;;;4.40;4.20;;;13.60;99.90;;;;;;5031941;28;20210;-64
2023/03/23 07:33:37;;;;;;;4.23;4.03;;;13.70;99.90;;;;;;5032441;28;20623;-64
2023/03/23 07:36:03;;;;;;;4.60;4.30;;;13.70;99.90;;;;;;5032135;28;20679;-64
2023/03/23 07:38:30;;;;;;;4.70;4.40;;;13.80;99.90;;;;;;5032121;28;20203;-64
2023/03/23 07:40:56;;;;;;;4.63;4.33;;;13.70;99.90;;;;;;5031725;28;20229;-64
2023/03/23 07:43:22;;;;;;;6.10;5.80;;;13.80;99.90;;;;;;5031900;28;20222;-64
2023/03/23 07:45:48;;;;;;;4.17;3.97;;;13.80;99.90;;;;;;5031481;28;20183;-64
2023/03/23 07:48:14;;;;;;;5.23;4.93;;;13.80;99.90;;;;;;5032120;28;20567;-64
2023/03/23 07:50:40;;;;;;;5.00;4.80;;;13.90;99.90;;;;;;5031498;28;20184;-64
2023/03/23 07:53:05;;;;;;;4.20;4.00;;;14.00;99.90;;;;;;5031964;28;20191;-64
2023/03/23 07:55:31;;;;;;;4.00;3.80;;;14.00;99.90;;;;;;5031738;28;20183;-64
2023/03/23 07:57:57;;;;;;;4.50;4.20;;;14.00;99.90;;;;;;5013445;28;20248;-64
2023/03/23 08:00:23;;;;;;;4.70;4.40;;;14.10;99.90;;;;;;5031167;28;20180;-64
2023/03/23 08:02:51;;;;;;;4.73;4.33;;;14.10;99.90;;;;;;5031274;28;20195;-64
2023/03/23 08:05:18;;;;;;;4.60;4.20;;;14.20;99.90;;;;;;5031697;28;20540;-64
2023/03/23 08:07:44;;;;;;;4.47;4.17;;;14.20;99.90;;;;;;5013596;28;20189;-64
2023/03/23 08:10:12;;;;;;;8.60;4.07;;;14.30;99.90;;;;;;5029444;28;20508;-64
2023/03/23 08:12:39;;;;;;;4.90;4.50;;;14.30;99.90;;;;;;5027540;28;20204;-64
2023/03/23 08:15:12;;;;;;;4.50;4.30;;;14.30;99.90;;;;;;5031263;28;20191;-64
2023/03/23 08:17:40;;;;;;;6.30;4.90;;;14.40;99.90;;;;;;5030949;28;20190;-64
2023/03/23 08:20:12;;;;;;;4.50;4.20;;;14.50;99.90;;;;;;5030298;28;20684;-64
2023/03/23 08:22:44;;;;;;;4.53;4.10;;;14.50;99.90;;;;;;5031008;28;20619;-64
2023/03/23 08:25:12;;;;;;;4.43;4.13;;;14.50;99.90;;;;;;5031614;28;20271;-64
2023/03/23 08:27:43;;;;;;;4.97;4.50;;;14.60;99.90;;;;;;5031246;28;20182;-65
2023/03/23 08:30:17;;;;;;;4.30;4.10;;;14.60;99.90;;;;;;5013564;28;20245;-64
2023/03/23 08:32:44;;;;;;;4.27;4.00;;;14.60;99.90;;;;;;5031092;28;20559;-65
2023/03/23 08:35:10;;;;;;;4.47;4.17;;;14.70;99.90;;;;;;5031603;28;20221;-65
2023/03/23 08:37:36;;;;;;;5.13;4.27;;;14.70;99.90;;;;;;5031166;28;20252;-65
2023/03/23 08:40:07;;;;;;;4.47;4.03;;;14.80;99.90;;;;;;5013030;28;20738;-64
2023/03/23 08:42:33;;;;;;;4.17;3.87;;;14.90;99.90;;;;;;5029429;28;20238;-66
2023/03/23 08:44:58;;;;;;;7.10;3.97;;;14.90;99.90;;;;;;5031191;28;20167;-66
2023/03/23 08:47:25;;;;;;;4.60;4.30;;;15.10;99.90;;;;;;5031183;28;20293;-66
2023/03/23 08:49:52;;;;;;;4.23;3.83;;;15.20;99.90;;;;;;5013011;28;20259;-65
2023/03/23 08:52:19;;;;;;;5.70;5.13;;;15.30;99.90;;;;;;5031308;28;20234;-66
2023/03/23 08:54:47;;;;;;;6.87;6.07;;;15.40;99.90;;;;;;5031107;28;20191;-64
2023/03/23 08:57:14;;;;;;;4.27;3.97;;;15.50;99.90;;;;;;5030990;28;20254;-65
2023/03/23 08:59:41;;;;;;;5.43;4.50;;;15.50;99.90;;;;;;5030807;28;20261;-66
2023/03/23 09:02:10;;;;;;;4.30;4.00;;;15.50;99.90;;;;;;5030974;28;20665;-65
2023/03/23 09:04:36;;;;;;;9.37;5.97;;;15.50;99.90;;;;;;5031372;28;20178;-65
2023/03/23 09:07:02;;;;;;;6.97;4.20;;;15.60;99.90;;;;;;5031269;28;20175;-65
2023/03/23 09:09:28;;;;;;;5.30;3.90;;;15.60;99.90;;;;;;5026422;28;20579;-66
2023/03/23 09:11:54;;;;;;;4.57;4.27;;;15.70;99.90;;;;;;5029974;28;20202;-64
2023/03/23 09:14:19;;;;;;;6.67;4.93;;;15.80;99.90;;;;;;5031188;28;20194;-63
2023/03/23 09:16:45;;;;;;;4.80;4.40;;;15.80;99.90;;;;;;5030491;28;20213;-63
2023/03/23 09:19:12;;;;;;;4.90;4.60;;;15.70;99.90;;;;;;5011521;28;20219;-64
2023/03/23 09:21:37;;;;;;;4.27;3.97;;;15.70;99.90;;;;;;5017109;28;20190;-64
2023/03/23 09:24:04;;;;;;;4.70;4.40;;;15.70;99.90;;;;;;5013144;28;20180;-64
2023/03/23 09:26:31;;;;;;;5.00;4.67;;;15.60;99.90;;;;;;5030759;28;20561;-65
2023/03/23 09:28:57;;;;;;;4.83;4.43;;;15.60;99.90;;;;;;5029426;28;20172;-65
2023/03/23 09:31:26;;;;;;;4.77;4.47;;;15.50;99.90;;;;;;5033750;28;20172;-65
2023/03/23 09:33:52;;;;;;;7.10;4.40;;;15.60;99.90;;;;;;5027607;28;20195;-64
2023/03/23 09:36:21;;;;;;;4.77;4.47;;;15.70;99.90;;;;;;5014997;28;20168;-66
2023/03/23 09:38:48;;;;;;;4.57;4.27;;;15.70;99.90;;;;;;5014618;28;20208;-65
2023/03/23 09:41:28;;;;;;;5.83;5.47;;;15.70;99.90;;;;;;5014390;28;20169;-65
2023/03/23 09:44:00;;;;;;;4.90;4.50;;;15.60;99.90;;;;;;5014296;28;20192;-65
2023/03/23 09:46:35;;;;;;;5.10;4.80;;;15.50;99.90;;;;;;5014824;28;20364;-65
2023/03/23 09:49:07;;;;;;;4.37;4.17;;;15.50;99.90;;;;;;5032040;28;20195;-65
2023/03/23 09:51:54;;;;;;;5.33;4.30;;;15.60;99.90;;;;;;5033731;28;20183;-65
2023/03/23 09:54:23;;;;;;;4.40;4.10;;;15.60;99.90;;;;;;5034190;28;20176;-64
2023/03/23 09:56:51;;;;;;;6.17;4.40;;;15.60;99.90;;;;;;5033355;28;20183;-65
2023/03/23 09:59:24;;;;;;;4.80;4.50;;;15.70;99.90;;;;;;5013796;28;20214;-64
2023/03/23 10:01:57;;;;;;;4.50;4.20;;;15.70;99.90;;;;;;5033498;28;20182;-64
2023/03/23 10:04:35;;;;;;;6.70;6.20;;;15.60;99.90;;;;;;5033734;28;20588;-64
2023/03/23 10:07:20;;;;;;;5.67;5.30;;;15.60;99.90;;;;;;5000450;28;20175;-65
2023/03/23 10:09:49;;;;;;;4.67;4.37;;;15.60;99.90;;;;;;5033002;28;20180;-65
2023/03/23 10:12:42;;;;;;;6.20;5.70;;;15.60;99.90;;;;;;5033807;28;20199;-65
2023/03/23 10:15:24;;;;;;;15.10;14.33;;;15.50;99.90;;;;;;5026883;28;20180;-65
2023/03/23 10:18:04;;;;;;;4.87;4.57;;;15.40;99.90;;;;;;5013685;28;20199;-63
2023/03/23 10:20:43;;;;;;;4.10;3.90;;;15.10;99.90;;;;;;5013676;28;20511;-65
2023/03/23 10:23:18;;;;;;;3.97;3.77;;;15.00;99.90;;;;;;5027870;28;20199;-65
2023/03/23 10:25:59;;;;;;;4.70;4.40;;;14.90;99.90;;;;;;5033122;28;20207;-65
2023/03/23 10:28:38;;;;;;;6.37;5.97;;;14.80;99.90;;;;;;5013880;28;20218;-64
2023/03/23 10:31:09;;;;;;;4.10;3.90;;;14.80;99.90;;;;;;5023142;28;20305;-65
2023/03/23 10:33:42;;;;;;;4.03;3.83;;;14.80;99.90;;;;;;5033676;28;20199;-65
2023/03/23 10:36:21;;;;;;;3.77;3.57;;;14.90;99.90;;;;;;5032977;28;20194;-66
2023/03/23 10:39:04;;;;;;;3.87;3.67;;;15.00;99.90;;;;;;5033670;28;20203;-64
2023/03/23 10:41:30;;;;;;;4.10;3.90;;;15.10;99.90;;;;;;5032369;28;20520;-65
2023/03/23 10:43:56;;;;;;;3.67;3.37;;;15.10;99.90;;;;;;5015153;28;20219;-66
2023/03/23 10:46:41;;;;;;;5.67;3.60;;;15.20;99.90;;;;;;5033285;28;20640;-65
2023/03/23 10:49:12;;;;;;;3.70;3.50;;;15.20;99.90;;;;;;5033433;28;20637;-65
2023/03/23 10:51:43;;;;;;;3.67;3.47;;;15.20;99.90;;;;;;5032962;28;20553;-65
2023/03/23 10:54:09;;;;;;;3.60;3.40;;;15.40;99.90;;;;;;5032878;28;20195;-65
2023/03/23 10:56:44;;;;;;;4.03;3.80;;;15.70;99.90;;;;;;5033174;28;20172;-66
2023/03/23 10:59:27;;;;;;;4.43;4.13;;;15.80;99.90;;;;;;5032488;28;20211;-65
2023/03/23 11:01:58;;;;;;;4.03;3.63;;;15.80;99.90;;;;;;5032544;28;20179;-65
2023/03/23 11:04:25;;;;;;;4.70;4.50;;;15.90;99.90;;;;;;5030555;28;20167;-65
2023/03/23 11:06:53;;;;;;;3.90;3.70;;;15.90;99.90;;;;;;5032771;28;20568;-65
2023/03/23 11:09:21;;;;;;;5.57;5.30;;;16.00;99.90;;;;;;5032566;28;20215;-64
2023/03/23 11:11:53;;;;;;;4.87;4.57;;;16.10;99.90;;;;;;5014792;28;20648;-65
2023/03/23 11:14:24;;;;;;;4.77;4.57;;;16.20;99.90;;;;;;5032369;28;20190;-64
2023/03/23 11:16:53;;;;;;;5.60;5.10;;;16.10;99.90;;;;;;5032518;28;20175;-66
2023/03/23 11:19:26;;;;;;;5.40;5.07;;;16.00;99.90;;;;;;5032054;28;20239;-65
2023/03/23 11:22:14;;;;;;;4.10;3.90;;;16.00;99.90;;;;;;5032190;28;20187;-64
2023/03/23 11:24:46;;;;;;;4.70;4.33;;;15.90;99.90;;;;;;5031673;28;20184;-64
2023/03/23 11:27:14;;;;;;;4.27;4.03;;;16.00;99.90;;;;;;5032718;28;20187;-64
2023/03/23 11:29:49;;;;;;;4.17;3.80;;;16.00;99.90;;;;;;5014145;28;20191;-64
2023/03/23 11:32:17;;;;;;;4.20;4.00;;;15.90;99.90;;;;;;5032327;28;20194;-64
2023/03/23 11:34:47;;;;;;;5.33;5.10;;;15.70;99.90;;;;;;5031953;28;20271;-64
2023/03/23 11:37:28;;;;;;;4.70;4.40;;;15.30;99.90;;;;;;5030388;28;20179;-63
2023/03/23 11:40:07;;;;;;;5.60;5.30;;;14.70;99.90;;;;;;5031694;28;20179;-63
2023/03/23 11:42:43;;;;;;;5.23;4.90;;;14.00;99.90;;;;;;5032059;28;20195;-64
2023/03/23 11:45:32;;;;;;;5.00;4.80;;;13.70;99.90;;;;;;5032353;28;20167;-65
2023/03/23 11:48:13;;;;;;;4.93;4.50;;;13.40;99.90;;;;;;5031631;28;20207;-65
2023/03/23 11:50:45;;;;;;;5.30;5.00;;;13.20;99.90;;;;;;5032177;28;20669;-64
2023/03/23 11:53:19;;;;;;;5.87;5.47;;;13.10;99.90;;;;;;5031243;28;20199;-65
2023/03/23 11:55:45;;;;;;;5.20;4.80;;;13.00;99.90;;;;;;5032203;28;20175;-65
2023/03/23 11:58:16;;;;;;;4.60;4.40;;;13.30;99.90;;;;;;5031639;28;20205;-65
2023/03/23 12:00:55;;;;;;;4.63;4.33;;;13.90;99.90;;;;;;5031227;28;20164;-65
2023/03/23 12:03:25;;;;;;;5.30;5.00;;;14.70;99.90;;;;;;5031443;28;20194;-65
2023/03/23 12:06:06;;;;;;;5.20;5.00;;;15.40;99.90;;;;;;5031767;28;20637;-65
2023/03/23 12:09:03;;;;;;;4.27;4.07;;;16.10;99.90;;;;;;5029552;28;20189;-65
2023/03/23 12:11:37;;;;;;;3.60;3.50;;;16.70;99.90;;;;;;5013540;28;20175;-65
2023/03/23 12:14:17;;;;;;;4.33;4.13;;;17.10;99.90;;;;;;5031506;28;20170;-65
2023/03/23 12:16:45;;;;;;;4.53;4.33;;;17.10;99.90;;;;;;5031607;28;20183;-65
2023/03/23 12:19:17;;;;;;;3.73;3.53;;;17.10;99.90;;;;;;5031280;28;20286;-65
2023/03/23 12:22:12;;;;;;;4.00;3.80;;;17.30;99.90;;;;;;5030982;28;20180;-65
2023/03/23 12:24:56;;;;;;;3.87;3.57;;;17.30;99.90;;;;;;5005643;28;20183;-65
2023/03/23 12:27:43;;;;;;;3.90;3.70;;;17.00;99.90;;;;;;5031199;28;20209;-64
2023/03/23 12:30:18;;;;;;;3.87;3.67;;;16.90;99.90;;;;;;5031031;28;20167;-65
2023/03/23 12:33:02;;;;;;;4.73;4.33;;;16.80;99.90;;;;;;5030983;28;20263;-64
2023/03/23 12:35:35;;;;;;;4.60;3.97;;;16.70;99.90;;;;;;5031391;28;20173;-64
2023/03/23 12:38:34;;;;;;;5.20;3.80;;;16.90;99.90;;;;;;5011243;28;20225;-64
2023/03/23 12:41:03;;;;;;;3.60;3.40;;;17.80;99.90;;;;;;5024916;28;20187;-64
2023/03/23 12:43:40;;;;;;;5.00;4.60;;;18.40;99.90;;;;;;5029072;28;20191;-64
2023/03/23 12:46:10;;;;;;;4.33;4.00;;;18.40;99.90;;;;;;5030906;28;20237;-65
2023/03/23 12:48:44;;;;;;;4.30;4.00;;;18.80;99.90;;;;;;5031163;28;20521;-65
2023/03/23 12:51:33;;;;;;;4.47;4.10;;;19.00;99.90;;;;;;5030509;28;20184;-64
2023/03/23 12:54:11;;;;;;;4.87;4.57;;;18.50;99.90;;;;;;5030788;28;20495;-64
2023/03/23 12:57:10;;;;;;;3.73;3.53;;;17.90;99.90;;;;;;5031238;28;20262;-64
2023/03/23 12:59:58;;;;;;;4.20;3.97;;;17.30;99.90;;;;;;5001320;28;20225;-65
2023/03/23 13:02:41;;;;;;;3.90;3.57;;;16.90;99.90;;;;;;5031039;28;20203;-64